Terminal Aerodrome Forecast
Issued by NWS

Home | Current Version | Previous Version | Text Only | Print | Product List | Glossary On
Versions: 1 2 3 4 5 6 7 8 9 10 11 12 13
000
FTUS42 KMLB 312300
TAFISM
TAF
KISM 312334Z 0100/0124 09009KT P6SM SCT045 BKN250
     FM010500 07003KT P6SM SCT250
     FM011500 14012KT P6SM SCT040
      AMD NOT SKED 0103/0112=

USA.gov is the U.S. government's official web portal to all federal, state and local government web resources and services.